Time;durP1;ratioP1;P1;durP2;ratioP2;P2;SDS_P1;SDS_P2;PMS_P1;PMS_P2;Temp;Humidity;BMP_temperature;BMP_pressure;BME280_temperature;BME280_humidity;BME280_pressure;Samples;Min_cycle;Max_cycle;Signal;HPM_P1;HPM_P2
2021/08/17 00:00:00;;;;;;;3.80;3.20;;;;;;;;;;5065262;28;20645;-67
2021/08/17 00:02:29;;;;;;;7.70;3.47;;;;;;;;;;5063574;28;20203;-70
2021/08/17 00:04:56;;;;;;;4.87;3.33;;;;;;;;;;5066655;28;20192;-68
2021/08/17 00:07:23;;;;;;;5.60;3.40;;;;;;;;;;5061620;28;20565;-70
2021/08/17 00:09:50;;;;;;;4.40;3.47;;;;;;;;;;5057029;28;20690;-69
2021/08/17 00:12:17;;;;;;;3.60;3.17;;;;;;;;;;5062650;28;20231;-68
2021/08/17 00:14:44;;;;;;;3.90;3.50;;;;;;;;;;5065151;28;20674;-67
2021/08/17 00:17:11;;;;;;;5.97;3.47;;;;;;;;;;5050851;28;20193;-67
2021/08/17 00:19:40;;;;;;;4.63;3.37;;;;;;;;;;5051156;28;20589;-66
2021/08/17 00:22:07;;;;;;;4.67;3.00;;;;;;;;;;5064389;28;20211;-68
2021/08/17 00:24:34;;;;;;;4.67;3.60;;;;;;;;;;5051395;28;20188;-67
2021/08/17 00:27:02;;;;;;;4.77;3.47;;;;;;;;;;5050291;28;20198;-68
2021/08/17 00:29:29;;;;;;;8.83;3.70;;;;;;;;;;5051063;28;20192;-67
2021/08/17 00:31:56;;;;;;;7.40;3.50;;;;;;;;;;5066910;28;20305;-70
2021/08/17 00:34:23;;;;;;;6.03;3.43;;;;;;;;;;5061903;28;20746;-65
2021/08/17 00:36:50;;;;;;;6.50;3.60;;;;;;;;;;5050094;28;20192;-68
2021/08/17 00:39:17;;;;;;;4.73;3.87;;;;;;;;;;5058239;28;20549;-69
2021/08/17 00:41:45;;;;;;;5.43;4.10;;;;;;;;;;5070472;28;20233;-66
2021/08/17 00:44:19;;;;;;;5.80;4.00;;;;;;;;;;5070119;28;20191;-66
2021/08/17 00:46:46;;;;;;;5.37;3.60;;;;;;;;;;5070421;28;20192;-68
2021/08/17 00:49:13;;;;;;;5.63;3.60;;;;;;;;;;5055651;28;20202;-67
2021/08/17 00:51:40;;;;;;;6.07;3.77;;;;;;;;;;5050257;28;20224;-69
2021/08/17 00:54:07;;;;;;;5.80;3.73;;;;;;;;;;5050815;28;20246;-67
2021/08/17 00:56:34;;;;;;;6.33;4.10;;;;;;;;;;5069858;28;20199;-67
2021/08/17 00:59:03;;;;;;;4.97;3.60;;;;;;;;;;5070432;28;20195;-67
2021/08/17 01:01:29;;;;;;;6.40;3.57;;;;;;;;;;5055530;28;20195;-69
2021/08/17 01:03:56;;;;;;;6.60;3.70;;;;;;;;;;5070538;28;20662;-66
2021/08/17 01:06:23;;;;;;;4.07;3.50;;;;;;;;;;5053385;28;20203;-67
2021/08/17 01:08:50;;;;;;;6.10;4.00;;;;;;;;;;5058915;28;20187;-69
2021/08/17 01:11:18;;;;;;;5.43;3.73;;;;;;;;;;5068803;28;20704;-68
2021/08/17 01:13:45;;;;;;;6.00;3.60;;;;;;;;;;5057282;28;20206;-66
2021/08/17 01:16:11;;;;;;;8.53;3.87;;;;;;;;;;5069957;28;20204;-69
2021/08/17 01:18:38;;;;;;;6.00;3.50;;;;;;;;;;5065060;28;20204;-69
2021/08/17 01:21:08;;;;;;;6.10;3.63;;;;;;;;;;5050222;28;20653;-68
2021/08/17 01:23:34;;;;;;;4.37;3.90;;;;;;;;;;5064150;28;20433;-71
2021/08/17 01:26:02;;;;;;;6.43;3.90;;;;;;;;;;5049747;28;20196;-68
2021/08/17 01:28:29;;;;;;;7.60;3.83;;;;;;;;;;5052043;28;20208;-68
2021/08/17 01:31:03;;;;;;;7.97;4.33;;;;;;;;;;5069758;28;20220;-68
2021/08/17 01:33:30;;;;;;;5.57;3.87;;;;;;;;;;5054309;28;20227;-68
2021/08/17 01:35:57;;;;;;;8.13;4.03;;;;;;;;;;5049798;28;20192;-67
2021/08/17 01:38:24;;;;;;;7.10;4.10;;;;;;;;;;5049664;28;20231;-67
2021/08/17 01:40:50;;;;;;;5.90;3.73;;;;;;;;;;5049829;28;20605;-68
2021/08/17 01:43:17;;;;;;;8.27;3.93;;;;;;;;;;5061674;28;20216;-66
2021/08/17 01:45:51;;;;;;;5.93;4.17;;;;;;;;;;5069392;28;20203;-69
2021/08/17 01:48:18;;;;;;;9.00;4.10;;;;;;;;;;5065787;28;20204;-66
2021/08/17 01:50:45;;;;;;;4.70;3.57;;;;;;;;;;5055982;28;20200;-67
2021/08/17 01:53:14;;;;;;;7.70;3.93;;;;;;;;;;5055597;28;20192;-68
2021/08/17 01:55:41;;;;;;;5.30;4.00;;;;;;;;;;5069709;28;20202;-69
2021/08/17 01:58:08;;;;;;;6.50;3.80;;;;;;;;;;5051319;28;20246;-66
2021/08/17 02:00:34;;;;;;;8.53;4.60;;;;;;;;;;5049206;28;20275;-67
2021/08/17 02:03:01;;;;;;;6.43;4.20;;;;;;;;;;5051915;28;20239;-66
2021/08/17 02:05:28;;;;;;;7.07;4.10;;;;;;;;;;5061379;28;20548;-68
2021/08/17 02:07:56;;;;;;;7.73;4.20;;;;;;;;;;5050352;28;20283;-68
2021/08/17 02:10:23;;;;;;;5.93;3.97;;;;;;;;;;5062697;28;20196;-68
2021/08/17 02:12:50;;;;;;;9.00;4.17;;;;;;;;;;5066676;28;20224;-67
2021/08/17 02:15:16;;;;;;;8.33;4.20;;;;;;;;;;5072965;28;20199;-67
2021/08/17 02:17:43;;;;;;;4.60;4.00;;;;;;;;;;5062339;28;20200;-70
2021/08/17 02:20:10;;;;;;;5.63;4.03;;;;;;;;;;5067008;28;20574;-67
2021/08/17 02:22:37;;;;;;;8.20;4.33;;;;;;;;;;5053748;28;20214;-69
2021/08/17 02:25:04;;;;;;;6.53;4.33;;;;;;;;;;5068503;28;20199;-68
2021/08/17 02:27:33;;;;;;;5.80;4.27;;;;;;;;;;5064951;28;20718;-70
2021/08/17 02:30:00;;;;;;;5.90;4.60;;;;;;;;;;5052883;28;20193;-67
2021/08/17 02:32:26;;;;;;;6.07;4.27;;;;;;;;;;5059780;28;20216;-67
2021/08/17 02:34:53;;;;;;;6.60;4.10;;;;;;;;;;5059779;28;20206;-66
2021/08/17 02:37:20;;;;;;;6.60;3.97;;;;;;;;;;5071696;28;20203;-67
2021/08/17 02:39:47;;;;;;;9.60;4.73;;;;;;;;;;5062043;28;20299;-65
2021/08/17 02:42:13;;;;;;;8.90;4.27;;;;;;;;;;5052132;28;20606;-66
2021/08/17 02:44:40;;;;;;;7.57;4.93;;;;;;;;;;5052981;28;20196;-66
2021/08/17 02:47:07;;;;;;;7.40;4.93;;;;;;;;;;5066236;28;20748;-66
2021/08/17 02:49:36;;;;;;;7.87;4.57;;;;;;;;;;5056515;28;20679;-68
2021/08/17 02:52:04;;;;;;;6.63;4.30;;;;;;;;;;5062313;28;20303;-69
2021/08/17 02:54:32;;;;;;;6.27;4.60;;;;;;;;;;5066818;28;20243;-66
2021/08/17 02:56:58;;;;;;;8.43;4.77;;;;;;;;;;5061338;28;20188;-66
2021/08/17 02:59:25;;;;;;;7.63;4.87;;;;;;;;;;5058149;28;20205;-67
2021/08/17 03:01:52;;;;;;;8.00;4.50;;;;;;;;;;5064856;28;20574;-69
2021/08/17 03:04:19;;;;;;;9.60;4.60;;;;;;;;;;5065404;28;20273;-67
2021/08/17 03:06:46;;;;;;;8.20;4.73;;;;;;;;;;5066846;28;21044;-69
2021/08/17 03:09:13;;;;;;;8.03;4.60;;;;;;;;;;5063940;28;20207;-67
2021/08/17 03:11:39;;;;;;;5.90;4.77;;;;;;;;;;5053890;28;20216;-70
2021/08/17 03:14:06;;;;;;;5.13;4.40;;;;;;;;;;5062412;28;20200;-68
2021/08/17 03:16:33;;;;;;;9.17;4.53;;;;;;;;;;5055694;28;20287;-68
2021/08/17 03:19:01;;;;;;;12.50;9.67;;;;;;;;;;5052588;28;20196;-68
2021/08/17 03:21:28;;;;;;;16.57;10.77;;;;;;;;;;5066033;28;20196;-68
2021/08/17 03:23:55;;;;;;;8.10;6.47;;;;;;;;;;5072667;28;20200;-69
2021/08/17 03:26:22;;;;;;;7.53;6.07;;;;;;;;;;5071472;28;20192;-67
2021/08/17 03:28:48;;;;;;;7.33;6.50;;;;;;;;;;5053617;28;20220;-68
2021/08/17 03:31:15;;;;;;;11.00;5.53;;;;;;;;;;5051688;28;20219;-66
2021/08/17 03:33:42;;;;;;;6.97;5.47;;;;;;;;;;5059592;28;20651;-67
2021/08/17 03:36:10;;;;;;;11.23;8.77;;;;;;;;;;5053514;28;20204;-66
2021/08/17 03:38:37;;;;;;;15.47;6.97;;;;;;;;;;5054395;28;20279;-68
2021/08/17 03:41:04;;;;;;;13.43;6.17;;;;;;;;;;5054273;28;20197;-67
2021/08/17 03:43:32;;;;;;;9.30;6.30;;;;;;;;;;5055866;28;20234;-67
2021/08/17 03:45:59;;;;;;;14.70;6.43;;;;;;;;;;5070896;28;20249;-67
2021/08/17 03:48:26;;;;;;;12.87;7.00;;;;;;;;;;5058729;28;20203;-66
2021/08/17 03:50:53;;;;;;;13.17;6.07;;;;;;;;;;5052441;28;20196;-69
2021/08/17 03:53:19;;;;;;;9.97;5.37;;;;;;;;;;5065049;28;20216;-67
2021/08/17 03:55:46;;;;;;;10.63;5.93;;;;;;;;;;5064496;28;20219;-67
2021/08/17 03:58:13;;;;;;;12.77;6.03;;;;;;;;;;5052727;28;20192;-69
2021/08/17 04:00:40;;;;;;;9.83;5.20;;;;;;;;;;5061627;28;20203;-69
2021/08/17 04:03:07;;;;;;;8.30;6.47;;;;;;;;;;5056592;28;20200;-67
2021/08/17 04:05:34;;;;;;;9.33;5.20;;;;;;;;;;5051402;28;20197;-68
2021/08/17 04:08:04;;;;;;;13.60;6.13;;;;;;;;;;5056215;28;20230;-68
2021/08/17 04:10:32;;;;;;;9.70;5.40;;;;;;;;;;5071084;28;20201;-68
2021/08/17 04:12:58;;;;;;;17.83;5.63;;;;;;;;;;5067964;28;20281;-69
2021/08/17 04:15:25;;;;;;;14.57;5.97;;;;;;;;;;5056566;28;20655;-68
2021/08/17 04:17:52;;;;;;;11.97;5.17;;;;;;;;;;5052542;28;20192;-67
2021/08/17 04:20:19;;;;;;;6.87;4.87;;;;;;;;;;5061482;28;20279;-66
2021/08/17 04:22:46;;;;;;;8.97;5.07;;;;;;;;;;5050738;28;20204;-68
2021/08/17 04:25:15;;;;;;;7.70;4.83;;;;;;;;;;5056304;28;20196;-66
2021/08/17 04:27:41;;;;;;;8.90;4.80;;;;;;;;;;5055229;28;20262;-68
2021/08/17 04:30:11;;;;;;;9.17;4.93;;;;;;;;;;5057127;28;20697;-72
2021/08/17 04:32:38;;;;;;;8.43;4.87;;;;;;;;;;5069848;28;20227;-72
2021/08/17 04:35:05;;;;;;;9.87;5.40;;;;;;;;;;5069921;28;20196;-73
2021/08/17 04:37:32;;;;;;;7.83;4.97;;;;;;;;;;5070293;28;20192;-70
2021/08/17 04:40:01;;;;;;;9.77;5.57;;;;;;;;;;5056850;28;20562;-69
2021/08/17 04:42:28;;;;;;;9.73;5.17;;;;;;;;;;5059002;28;20228;-73
2021/08/17 04:44:55;;;;;;;19.23;15.30;;;;;;;;;;5059767;28;20279;-70
2021/08/17 04:47:22;;;;;;;42.70;35.53;;;;;;;;;;5051857;28;20200;-71
2021/08/17 04:49:48;;;;;;;41.73;35.00;;;;;;;;;;5056332;28;20188;-74
2021/08/17 04:52:15;;;;;;;10.67;6.53;;;;;;;;;;5070932;28;20238;-72
2021/08/17 04:54:42;;;;;;;10.73;5.90;;;;;;;;;;5066718;28;20567;-72
2021/08/17 04:57:09;;;;;;;12.93;5.90;;;;;;;;;;5050721;28;20211;-71
2021/08/17 04:59:35;;;;;;;9.63;5.50;;;;;;;;;;5066790;28;20188;-72
2021/08/17 05:02:02;;;;;;;11.17;5.40;;;;;;;;;;5070418;28;20220;-73
2021/08/17 05:04:29;;;;;;;11.10;5.40;;;;;;;;;;5069804;28;20191;-71
2021/08/17 05:06:56;;;;;;;13.00;5.80;;;;;;;;;;5050196;28;20211;-72
2021/08/17 05:09:24;;;;;;;41.23;31.43;;;;;;;;;;5063393;28;20195;-68
2021/08/17 05:11:52;;;;;;;91.57;81.70;;;;;;;;;;5070555;28;20250;-69
2021/08/17 05:14:19;;;;;;;11.20;6.80;;;;;;;;;;5070462;28;20203;-68
2021/08/17 05:16:45;;;;;;;8.43;5.03;;;;;;;;;;5069820;28;20216;-73
2021/08/17 05:19:12;;;;;;;8.53;5.60;;;;;;;;;;5070214;28;20618;-74
2021/08/17 05:21:39;;;;;;;8.20;5.47;;;;;;;;;;5063142;28;20199;-72
2021/08/17 05:24:05;;;;;;;11.00;5.43;;;;;;;;;;5052546;28;20280;-74
2021/08/17 05:26:32;;;;;;;50.70;41.80;;;;;;;;;;5052004;28;20184;-71
2021/08/17 05:29:01;;;;;;;47.63;35.03;;;;;;;;;;5056703;28;20591;-72
2021/08/17 05:31:28;;;;;;;9.53;7.00;;;;;;;;;;5068358;28;20196;-66
2021/08/17 05:33:55;;;;;;;8.87;5.60;;;;;;;;;;5054452;28;20283;-66
2021/08/17 05:36:23;;;;;;;6.90;5.03;;;;;;;;;;5052777;28;20581;-66
2021/08/17 05:38:50;;;;;;;6.87;4.43;;;;;;;;;;5064066;28;20207;-68
2021/08/17 05:41:16;;;;;;;7.17;4.77;;;;;;;;;;5067837;28;20666;-66
2021/08/17 05:43:43;;;;;;;8.43;4.77;;;;;;;;;;5063858;28;20247;-67
2021/08/17 05:46:10;;;;;;;15.53;11.80;;;;;;;;;;5051573;28;20192;-68
2021/08/17 05:48:39;;;;;;;46.47;41.53;;;;;;;;;;5059562;28;20742;-70
2021/08/17 05:51:07;;;;;;;8.00;5.97;;;;;;;;;;5054010;28;20196;-68
2021/08/17 05:53:34;;;;;;;6.87;5.20;;;;;;;;;;5054789;28;20331;-69
2021/08/17 05:56:01;;;;;;;10.33;5.90;;;;;;;;;;5068108;28;20204;-69
2021/08/17 05:58:27;;;;;;;9.67;5.30;;;;;;;;;;5061191;28;20196;-69
2021/08/17 06:00:54;;;;;;;13.67;5.33;;;;;;;;;;5073879;28;20230;-67
2021/08/17 06:03:21;;;;;;;7.90;5.27;;;;;;;;;;5054757;28;20188;-69
2021/08/17 06:05:49;;;;;;;16.17;5.67;;;;;;;;;;5065019;28;20578;-69
2021/08/17 06:08:16;;;;;;;11.93;5.53;;;;;;;;;;5056448;28;20568;-68
2021/08/17 06:10:43;;;;;;;10.37;5.40;;;;;;;;;;5053419;28;20223;-69
2021/08/17 06:13:09;;;;;;;7.37;4.57;;;;;;;;;;5053554;28;20220;-68
2021/08/17 06:15:36;;;;;;;9.00;5.30;;;;;;;;;;5062219;28;20600;-67
2021/08/17 06:18:04;;;;;;;8.97;5.40;;;;;;;;;;5059415;28;20732;-68
2021/08/17 06:20:32;;;;;;;12.17;5.40;;;;;;;;;;5073731;28;20231;-70
2021/08/17 06:22:58;;;;;;;7.40;4.63;;;;;;;;;;5060945;28;20193;-69
2021/08/17 06:25:27;;;;;;;10.70;4.93;;;;;;;;;;5072370;28;20199;-69
2021/08/17 06:27:56;;;;;;;11.53;5.00;;;;;;;;;;5073616;28;20219;-69
2021/08/17 06:30:22;;;;;;;9.20;5.40;;;;;;;;;;5069281;28;20193;-68
2021/08/17 06:32:53;;;;;;;9.50;5.03;;;;;;;;;;5053602;28;20247;-71
2021/08/17 06:35:20;;;;;;;8.27;4.80;;;;;;;;;;5053261;28;20193;-70
2021/08/17 06:37:46;;;;;;;5.80;4.77;;;;;;;;;;5053800;28;20206;-66
2021/08/17 06:40:14;;;;;;;8.67;4.87;;;;;;;;;;5053222;28;20243;-67
2021/08/17 06:42:41;;;;;;;10.07;5.83;;;;;;;;;;5060690;28;20706;-69
2021/08/17 06:45:08;;;;;;;6.80;4.97;;;;;;;;;;5073372;28;20286;-69
2021/08/17 06:47:42;;;;;;;9.70;4.70;;;;;;;;;;5071564;28;20192;-68
2021/08/17 06:50:09;;;;;;;9.47;4.80;;;;;;;;;;5052686;28;20199;-68
2021/08/17 06:52:36;;;;;;;10.20;5.43;;;;;;;;;;5052875;28;20228;-68
2021/08/17 06:55:03;;;;;;;8.80;5.60;;;;;;;;;;5059176;28;20203;-65
2021/08/17 06:57:30;;;;;;;10.27;5.47;;;;;;;;;;5072133;28;20211;-67
2021/08/17 06:59:57;;;;;;;8.17;5.33;;;;;;;;;;5067669;28;20215;-66
2021/08/17 07:02:24;;;;;;;6.87;5.10;;;;;;;;;;5064590;28;20196;-67
2021/08/17 07:04:56;;;;;;;11.40;5.50;;;;;;;;;;5053900;28;20199;-67
2021/08/17 07:07:23;;;;;;;12.30;5.17;;;;;;;;;;5063293;28;20199;-69
2021/08/17 07:09:50;;;;;;;8.10;5.47;;;;;;;;;;5055785;28;20249;-66
2021/08/17 07:12:16;;;;;;;14.03;5.43;;;;;;;;;;5052032;28;20243;-67
2021/08/17 07:14:43;;;;;;;11.07;5.33;;;;;;;;;;5052141;28;20291;-66
2021/08/17 07:17:10;;;;;;;10.17;5.30;;;;;;;;;;5059176;28;20270;-67
2021/08/17 07:19:37;;;;;;;11.70;5.10;;;;;;;;;;5059526;28;20193;-68
2021/08/17 07:22:04;;;;;;;10.87;5.30;;;;;;;;;;5051985;28;20188;-67
2021/08/17 07:24:30;;;;;;;8.60;5.63;;;;;;;;;;5064171;28;20290;-68
2021/08/17 07:26:57;;;;;;;10.47;5.67;;;;;;;;;;5071643;28;20187;-66
2021/08/17 07:29:24;;;;;;;10.90;5.73;;;;;;;;;;5063051;28;20208;-68
2021/08/17 07:31:51;;;;;;;11.03;4.90;;;;;;;;;;5067638;28;20542;-67
2021/08/17 07:34:18;;;;;;;9.00;5.27;;;;;;;;;;5072190;28;20284;-67
2021/08/17 07:36:44;;;;;;;23.83;5.63;;;;;;;;;;5058042;28;20189;-65
2021/08/17 07:39:14;;;;;;;7.87;5.17;;;;;;;;;;5072909;28;20192;-67
2021/08/17 07:41:41;;;;;;;12.30;5.53;;;;;;;;;;5058886;28;20196;-67
2021/08/17 07:44:08;;;;;;;7.03;4.87;;;;;;;;;;5065764;28;20196;-67
2021/08/17 07:46:35;;;;;;;8.87;5.20;;;;;;;;;;5062687;28;20249;-67
2021/08/17 07:49:02;;;;;;;8.03;5.33;;;;;;;;;;5054581;28;20658;-68
2021/08/17 07:51:29;;;;;;;14.27;6.03;;;;;;;;;;5056482;28;20665;-68
2021/08/17 07:53:56;;;;;;;13.23;5.20;;;;;;;;;;5072661;28;20224;-67
2021/08/17 07:56:23;;;;;;;11.83;4.93;;;;;;;;;;5057179;28;20188;-68
2021/08/17 07:58:49;;;;;;;7.47;4.67;;;;;;;;;;5061782;28;20275;-66
2021/08/17 08:01:17;;;;;;;15.00;5.57;;;;;;;;;;5065443;28;20755;-67
2021/08/17 08:03:44;;;;;;;9.20;4.83;;;;;;;;;;5051993;28;20277;-66
2021/08/17 08:06:12;;;;;;;11.80;4.97;;;;;;;;;;5052165;28;20200;-68
2021/08/17 08:08:41;;;;;;;9.33;5.20;;;;;;;;;;5070481;28;20299;-68
2021/08/17 08:11:08;;;;;;;11.43;5.73;;;;;;;;;;5058048;28;20196;-67
2021/08/17 08:13:35;;;;;;;12.23;5.30;;;;;;;;;;5070540;28;20224;-68
2021/08/17 08:16:01;;;;;;;13.20;5.83;;;;;;;;;;5059792;28;20197;-66
2021/08/17 08:18:29;;;;;;;7.07;5.43;;;;;;;;;;5051390;28;20231;-66
2021/08/17 08:20:55;;;;;;;6.83;5.00;;;;;;;;;;5061110;28;20195;-66
2021/08/17 08:23:22;;;;;;;12.07;5.60;;;;;;;;;;5054530;28;20200;-66
2021/08/17 08:25:49;;;;;;;11.60;5.73;;;;;;;;;;5051116;28;20246;-65
2021/08/17 08:28:16;;;;;;;8.53;5.27;;;;;;;;;;5065506;28;20192;-67
2021/08/17 08:30:43;;;;;;;10.23;5.40;;;;;;;;;;5050934;28;20281;-68
2021/08/17 08:33:09;;;;;;;12.53;4.77;;;;;;;;;;5063502;28;20253;-68
2021/08/17 08:35:36;;;;;;;8.07;5.37;;;;;;;;;;5051922;28;20253;-67
2021/08/17 08:38:03;;;;;;;6.23;5.40;;;;;;;;;;5062160;28;20191;-67
2021/08/17 08:40:30;;;;;;;6.67;5.43;;;;;;;;;;5067620;28;20193;-66
2021/08/17 08:42:57;;;;;;;6.97;5.10;;;;;;;;;;5050798;28;20236;-68
2021/08/17 08:45:27;;;;;;;7.53;5.47;;;;;;;;;;5050962;28;20299;-67
2021/08/17 08:47:55;;;;;;;7.37;5.13;;;;;;;;;;5050819;28;20573;-68
2021/08/17 08:50:22;;;;;;;9.93;5.73;;;;;;;;;;5061078;28;20223;-66
2021/08/17 08:52:49;;;;;;;11.53;5.80;;;;;;;;;;5056182;28;20234;-68
2021/08/17 08:55:16;;;;;;;8.23;5.57;;;;;;;;;;5070696;28;20206;-68
2021/08/17 08:57:43;;;;;;;8.80;5.47;;;;;;;;;;5069909;28;20200;-67
2021/08/17 09:00:10;;;;;;;7.53;5.30;;;;;;;;;;5057245;28;20206;-68
2021/08/17 09:02:37;;;;;;;9.87;5.37;;;;;;;;;;5057240;28;20250;-69
2021/08/17 09:05:05;;;;;;;8.10;5.67;;;;;;;;;;5050167;28;20197;-67
2021/08/17 09:07:32;;;;;;;10.73;5.90;;;;;;;;;;5062326;28;20288;-67
2021/08/17 09:10:02;;;;;;;14.63;5.83;;;;;;;;;;5055873;28;20196;-68
2021/08/17 09:12:33;;;;;;;8.67;6.07;;;;;;;;;;5059708;28;20207;-67
2021/08/17 09:15:11;;;;;;;9.47;4.97;;;;;;;;;;5052768;28;20191;-66
2021/08/17 09:17:40;;;;;;;10.83;5.33;;;;;;;;;;5059761;28;20238;-68
2021/08/17 09:20:14;;;;;;;11.93;5.30;;;;;;;;;;5049647;28;20196;-69
2021/08/17 09:22:42;;;;;;;9.77;5.30;;;;;;;;;;5060450;28;20241;-68
2021/08/17 09:25:09;;;;;;;9.47;5.93;;;;;;;;;;5052796;28;20283;-68
2021/08/17 09:27:36;;;;;;;9.27;5.57;;;;;;;;;;5058913;28;20202;-68
2021/08/17 09:30:13;;;;;;;13.77;5.77;;;;;;;;;;5055374;28;20246;-68
2021/08/17 09:32:50;;;;;;;9.10;5.40;;;;;;;;;;5070169;28;20226;-68
2021/08/17 09:35:19;;;;;;;7.30;5.03;;;;;;;;;;5055823;28;20199;-68
2021/08/17 09:37:47;;;;;;;7.00;5.57;;;;;;;;;;5061882;28;20203;-69
2021/08/17 09:40:15;;;;;;;8.87;5.20;;;;;;;;;;5050268;28;20207;-66
2021/08/17 09:42:42;;;;;;;8.23;5.80;;;;;;;;;;5062164;28;20706;-65
2021/08/17 09:45:14;;;;;;;8.33;5.07;;;;;;;;;;5061567;28;20670;-69
2021/08/17 09:48:01;;;;;;;12.97;6.10;;;;;;;;;;5055935;28;20572;-68
2021/08/17 09:50:33;;;;;;;6.27;5.63;;;;;;;;;;5058586;28;20200;-67
2021/08/17 09:53:05;;;;;;;10.03;5.60;;;;;;;;;;5049693;28;20307;-68
2021/08/17 09:55:37;;;;;;;8.10;6.13;;;;;;;;;;5049462;28;20200;-68
2021/08/17 09:58:23;;;;;;;6.70;5.97;;;;;;;;;;5052813;28;20227;-68
2021/08/17 10:00:52;;;;;;;9.77;6.07;;;;;;;;;;5056915;28;20259;-69
2021/08/17 10:03:19;;;;;;;6.50;5.30;;;;;;;;;;5063579;28;20196;-69
2021/08/17 10:05:47;;;;;;;8.53;5.80;;;;;;;;;;5049620;28;20273;-67
2021/08/17 10:08:16;;;;;;;7.10;5.70;;;;;;;;;;5049616;28;20188;-67
2021/08/17 10:10:47;;;;;;;8.60;5.53;;;;;;;;;;5059169;28;20204;-68
2021/08/17 10:13:15;;;;;;;10.33;5.57;;;;;;;;;;5066818;28;20310;-69
2021/08/17 10:15:43;;;;;;;9.40;6.30;;;;;;;;;;5049557;28;20189;-68
2021/08/17 10:18:12;;;;;;;10.40;5.90;;;;;;;;;;5063450;28;20590;-67
2021/08/17 10:20:41;;;;;;;8.93;6.20;;;;;;;;;;5056757;28;20214;-68
2021/08/17 10:23:08;;;;;;;11.13;6.23;;;;;;;;;;5055291;28;20197;-68
2021/08/17 10:25:45;;;;;;;12.93;5.30;;;;;;;;;;5063012;28;20200;-67
2021/08/17 10:28:24;;;;;;;9.30;5.93;;;;;;;;;;5049683;28;20215;-70
2021/08/17 10:30:53;;;;;;;9.37;5.83;;;;;;;;;;5056835;28;20219;-66
2021/08/17 10:33:37;;;;;;;9.30;5.70;;;;;;;;;;5058499;28;20222;-67
2021/08/17 10:36:04;;;;;;;9.00;5.97;;;;;;;;;;5053408;28;20287;-67
2021/08/17 10:38:30;;;;;;;11.87;6.50;;;;;;;;;;5052939;28;20188;-67
2021/08/17 10:40:57;;;;;;;9.23;6.67;;;;;;;;;;5052853;28;20196;-69
2021/08/17 10:43:26;;;;;;;10.03;6.37;;;;;;;;;;5052741;28;20235;-69
2021/08/17 10:45:55;;;;;;;11.70;6.57;;;;;;;;;;5066660;28;20196;-69
2021/08/17 10:48:40;;;;;;;7.53;6.37;;;;;;;;;;5057667;28;20196;-68
2021/08/17 10:51:08;;;;;;;9.10;6.47;;;;;;;;;;5055591;28;20295;-66
2021/08/17 10:53:35;;;;;;;9.63;6.73;;;;;;;;;;5065208;28;20223;-67
2021/08/17 10:56:12;;;;;;;9.00;7.00;;;;;;;;;;5067654;28;20516;-69
2021/08/17 10:58:40;;;;;;;15.10;7.10;;;;;;;;;;5065667;28;20195;-70
2021/08/17 11:01:07;;;;;;;8.33;6.83;;;;;;;;;;5053078;28;20204;-69
2021/08/17 11:03:38;;;;;;;14.40;6.73;;;;;;;;;;5059858;28;20290;-68
2021/08/17 11:06:05;;;;;;;13.10;7.37;;;;;;;;;;5059207;28;20718;-66
2021/08/17 11:08:31;;;;;;;14.63;7.60;;;;;;;;;;5052738;28;20207;-68
2021/08/17 11:11:16;;;;;;;8.93;6.67;;;;;;;;;;5052272;28;20200;-69
2021/08/17 11:14:04;;;;;;;8.03;7.23;;;;;;;;;;5052727;28;20224;-69
2021/08/17 11:16:31;;;;;;;13.17;7.03;;;;;;;;;;5053579;28;20240;-67
2021/08/17 11:18:59;;;;;;;13.60;7.20;;;;;;;;;;5065368;28;20204;-70
2021/08/17 11:21:29;;;;;;;12.43;7.67;;;;;;;;;;5066320;28;20249;-68
2021/08/17 11:24:08;;;;;;;18.63;16.87;;;;;;;;;;5059567;28;20226;-68
2021/08/17 11:26:36;;;;;;;13.27;7.60;;;;;;;;;;5057470;28;20203;-69
2021/08/17 11:29:03;;;;;;;11.87;8.17;;;;;;;;;;5059091;28;20195;-68
2021/08/17 11:31:30;;;;;;;9.50;7.17;;;;;;;;;;5059062;28;20207;-69
2021/08/17 11:34:13;;;;;;;16.90;8.57;;;;;;;;;;5071498;28;20642;-67
2021/08/17 11:36:40;;;;;;;10.03;7.60;;;;;;;;;;5058818;28;20204;-70
2021/08/17 11:39:21;;;;;;;16.80;7.63;;;;;;;;;;5057602;28;20180;-68
2021/08/17 11:41:48;;;;;;;10.07;7.63;;;;;;;;;;5057799;28;20291;-68
2021/08/17 11:44:24;;;;;;;15.90;7.93;;;;;;;;;;5051604;28;20576;-69
2021/08/17 11:47:01;;;;;;;15.00;7.93;;;;;;;;;;5052081;28;20204;-69
2021/08/17 11:49:28;;;;;;;13.10;7.53;;;;;;;;;;5052311;28;20258;-68
2021/08/17 11:52:02;;;;;;;16.40;8.63;;;;;;;;;;5052125;28;20211;-69
2021/08/17 11:54:33;;;;;;;16.10;8.17;;;;;;;;;;5052180;28;20259;-67
2021/08/17 11:57:11;;;;;;;13.20;8.57;;;;;;;;;;5051384;28;20667;-66
2021/08/17 11:59:38;;;;;;;14.03;9.13;;;;;;;;;;5065856;28;20192;-69
2021/08/17 12:02:05;;;;;;;12.07;9.33;;;;;;;;;;5060085;28;20691;-69
2021/08/17 12:04:32;;;;;;;15.23;9.53;;;;;;;;;;5070430;28;20677;-67
2021/08/17 12:07:09;;;;;;;27.70;21.47;;;;;;;;;;5051243;28;20291;-71
2021/08/17 12:09:40;;;;;;;18.37;10.33;;;;;;;;;;5052644;28;20214;-69
2021/08/17 12:12:07;;;;;;;16.40;12.70;;;;;;;;;;5063714;28;20206;-69
2021/08/17 12:14:34;;;;;;;22.70;10.97;;;;;;;;;;5051330;28;20612;-68
2021/08/17 12:17:02;;;;;;;16.00;10.23;;;;;;;;;;5070851;28;20270;-67
2021/08/17 12:19:29;;;;;;;12.50;10.83;;;;;;;;;;5071580;28;20192;-67
2021/08/17 12:21:58;;;;;;;15.70;10.50;;;;;;;;;;5052417;28;20192;-70
2021/08/17 12:24:26;;;;;;;16.17;10.47;;;;;;;;;;5062604;28;20195;-68
2021/08/17 12:27:01;;;;;;;19.13;10.73;;;;;;;;;;5069698;28;20230;-68
2021/08/17 12:29:38;;;;;;;16.17;11.93;;;;;;;;;;5062073;28;20188;-69
2021/08/17 12:32:15;;;;;;;16.53;11.67;;;;;;;;;;5056361;28;20699;-68
2021/08/17 12:34:43;;;;;;;20.67;14.57;;;;;;;;;;5059888;28;20238;-68
2021/08/17 12:37:23;;;;;;;18.67;13.67;;;;;;;;;;5050479;28;20192;-67
2021/08/17 12:40:11;;;;;;;18.47;13.43;;;;;;;;;;5062986;28;20692;-68
2021/08/17 12:42:42;;;;;;;16.63;14.77;;;;;;;;;;5064169;28;20702;-70
2021/08/17 12:45:14;;;;;;;15.53;13.93;;;;;;;;;;5063992;28;20196;-68
2021/08/17 12:47:55;;;;;;;19.27;15.03;;;;;;;;;;5064527;28;20295;-67
2021/08/17 12:50:22;;;;;;;21.53;15.60;;;;;;;;;;5050727;28;20583;-68
2021/08/17 12:52:50;;;;;;;18.03;15.57;;;;;;;;;;5053304;28;20655;-69
2021/08/17 12:55:18;;;;;;;22.67;15.63;;;;;;;;;;5069646;28;20840;-69
2021/08/17 12:57:47;;;;;;;23.00;16.87;;;;;;;;;;5069061;28;20282;-68
2021/08/17 13:00:16;;;;;;;19.00;17.00;;;;;;;;;;5062805;28;20323;-71
2021/08/17 13:02:43;;;;;;;19.50;16.60;;;;;;;;;;5051206;28;20207;-69
2021/08/17 13:05:10;;;;;;;21.00;17.83;;;;;;;;;;5050305;28;20192;-67
2021/08/17 13:07:38;;;;;;;23.43;18.47;;;;;;;;;;5063210;28;20222;-70
2021/08/17 13:10:07;;;;;;;22.63;20.23;;;;;;;;;;5065045;28;20655;-68
2021/08/17 13:12:34;;;;;;;20.77;18.57;;;;;;;;;;5050108;28;20207;-71
2021/08/17 13:15:00;;;;;;;23.37;19.20;;;;;;;;;;5049957;28;20220;-69
2021/08/17 13:17:27;;;;;;;19.80;17.70;;;;;;;;;;5060003;28;20223;-70
2021/08/17 13:19:55;;;;;;;22.47;17.30;;;;;;;;;;5069938;28;20191;-69
2021/08/17 13:22:22;;;;;;;18.87;15.90;;;;;;;;;;5062259;28;20200;-69
2021/08/17 13:24:50;;;;;;;19.63;16.27;;;;;;;;;;5050108;28;20195;-67
2021/08/17 13:27:16;;;;;;;22.57;15.70;;;;;;;;;;5049964;28;20185;-66
2021/08/17 13:29:43;;;;;;;20.60;15.90;;;;;;;;;;5062724;28;20223;-69
2021/08/17 13:32:10;;;;;;;21.50;14.97;;;;;;;;;;5055602;28;20192;-67
2021/08/17 13:34:37;;;;;;;18.70;14.60;;;;;;;;;;5059772;28;21103;-67
2021/08/17 13:37:07;;;;;;;18.03;13.27;;;;;;;;;;5064051;28;20202;-68
2021/08/17 13:39:37;;;;;;;17.63;12.70;;;;;;;;;;5049803;28;20254;-70
2021/08/17 13:42:05;;;;;;;19.03;12.83;;;;;;;;;;5051524;28;20220;-69
2021/08/17 13:44:35;;;;;;;17.33;13.00;;;;;;;;;;5061884;28;20259;-67
2021/08/17 13:47:05;;;;;;;18.07;13.50;;;;;;;;;;5050187;28;20204;-68
2021/08/17 13:49:35;;;;;;;15.37;11.70;;;;;;;;;;5066273;28;20211;-67
2021/08/17 13:52:02;;;;;;;19.87;11.63;;;;;;;;;;5059077;28;20188;-73
2021/08/17 13:54:29;;;;;;;17.20;12.00;;;;;;;;;;5054144;28;20286;-75
2021/08/17 13:56:56;;;;;;;13.50;11.97;;;;;;;;;;5069033;28;20210;-74
2021/08/17 13:59:23;;;;;;;19.57;12.10;;;;;;;;;;5070449;28;20195;-77
2021/08/17 14:01:50;;;;;;;22.50;13.33;;;;;;;;;;5070362;28;20195;-73
2021/08/17 14:04:17;;;;;;;23.73;14.50;;;;;;;;;;5055971;28;20234;-72
2021/08/17 14:06:45;;;;;;;20.17;13.30;;;;;;;;;;5069508;28;20721;-75
2021/08/17 14:09:20;;;;;;;17.03;11.80;;;;;;;;;;5074593;28;20210;-73
2021/08/17 14:11:49;;;;;;;17.47;11.90;;;;;;;;;;5069327;28;20207;-71
2021/08/17 14:14:16;;;;;;;18.60;11.90;;;;;;;;;;5054915;28;20211;-79
2021/08/17 14:16:43;;;;;;;19.00;11.93;;;;;;;;;;5058107;28;20196;-76
2021/08/17 14:19:12;;;;;;;18.33;11.90;;;;;;;;;;5065844;28;20204;-74
2021/08/17 14:21:40;;;;;;;15.47;11.83;;;;;;;;;;5068012;28;20196;-72
2021/08/17 14:24:08;;;;;;;20.33;12.17;;;;;;;;;;5054854;28;20254;-73
2021/08/17 14:26:37;;;;;;;15.87;11.43;;;;;;;;;;5068280;28;20207;-72
2021/08/17 14:29:04;;;;;;;21.80;17.37;;;;;;;;;;5061843;28;20645;-71
2021/08/17 14:31:31;;;;;;;16.53;12.43;;;;;;;;;;5073166;28;20196;-72
2021/08/17 14:33:58;;;;;;;17.77;11.70;;;;;;;;;;5050871;28;20201;-72
2021/08/17 14:36:25;;;;;;;17.93;11.37;;;;;;;;;;5059958;28;20732;-75
2021/08/17 14:38:52;;;;;;;14.03;11.60;;;;;;;;;;5063763;28;20184;-70